createdAt,value
2022-09-10T00:03:00.899Z,15.2
2022-09-10T00:08:17.199Z,15.2
2022-09-10T00:13:23.522Z,15.2
2022-09-10T00:18:19.883Z,15.2
2022-09-10T00:23:40.330Z,15.2
2022-09-10T00:28:42.673Z,15.1
2022-09-10T00:33:49.067Z,15.1
2022-09-10T00:38:55.471Z,15.1
2022-09-10T00:44:01.868Z,15.1
2022-09-10T00:49:08.339Z,15.1
2022-09-10T00:54:14.797Z,15.0
2022-09-10T00:59:21.144Z,15.0
2022-09-10T01:05:11.619Z,15.0
2022-09-10T01:09:33.950Z,15.0
2022-09-10T01:14:40.311Z,14.9
2022-09-10T01:19:46.701Z,14.9
2022-09-10T01:24:43.083Z,14.9
2022-09-10T01:29:49.517Z,14.9
2022-09-10T01:35:06.021Z,14.9
2022-09-10T01:40:12.580Z,14.9
2022-09-10T01:45:18.919Z,15.0
2022-09-10T01:50:25.202Z,14.9
2022-09-10T01:55:51.633Z,15.0
2022-09-10T02:00:37.969Z,15.0
2022-09-10T02:05:34.312Z,15.0
2022-09-10T02:11:04.854Z,15.1
2022-09-10T02:16:21.399Z,15.1
2022-09-10T02:21:17.810Z,15.1
2022-09-10T02:31:15.788Z,15.2
2022-09-10T02:36:23.251Z,15.1
2022-09-10T02:41:29.630Z,15.2
2022-09-10T02:46:36.032Z,15.2
2022-09-10T02:51:42.393Z,15.2
2022-09-10T02:56:38.813Z,15.2
2022-09-10T03:02:19.327Z,15.3
2022-09-10T03:07:21.800Z,15.3
2022-09-10T03:12:08.268Z,15.3
2022-09-10T03:17:04.642Z,15.3
2022-09-10T03:22:21.058Z,15.3
2022-09-10T03:27:17.398Z,15.3
2022-09-10T03:32:33.774Z,15.4
2022-09-10T03:37:40.174Z,15.4
2022-09-10T03:42:36.641Z,15.4
2022-09-10T03:47:53.257Z,15.4
2022-09-10T03:53:23.777Z,15.4
2022-09-10T03:58:19.253Z,15.4
2022-09-10T04:03:16.612Z,15.4
2022-09-10T04:08:18.985Z,15.4
2022-09-10T04:13:25.377Z,15.4
2022-09-10T04:18:55.800Z,15.4
2022-09-10T04:24:02.174Z,15.4
2022-09-10T04:33:40.867Z,15.4
2022-09-10T04:38:57.845Z,15.3
2022-09-10T04:45:36.488Z,15.3
2022-09-10T04:50:10.754Z,15.3
2022-09-10T04:54:17.022Z,15.3
2022-09-10T04:59:43.431Z,15.3
2022-09-10T05:14:42.522Z,15.3
2022-09-10T05:19:48.923Z,15.3
2022-09-10T05:25:15.312Z,15.3
2022-09-10T05:30:01.642Z,15.3
2022-09-10T05:35:08.036Z,15.3
2022-09-10T05:40:14.379Z,15.3
2022-09-10T05:45:20.756Z,15.3
2022-09-10T05:50:51.207Z,15.3
2022-09-10T05:55:56.544Z,15.4
2022-09-10T06:00:59.904Z,15.4
2022-09-10T06:06:06.297Z,15.4
2022-09-10T06:10:52.618Z,15.4
2022-09-10T06:16:00.572Z,15.4
2022-09-10T06:21:07.059Z,15.4
2022-09-10T06:26:13.570Z,15.5
2022-09-10T06:31:47.976Z,15.5
2022-09-10T06:37:38.556Z,15.5
2022-09-10T06:41:32.922Z,15.5
2022-09-10T06:56:52.055Z,15.6
2022-09-10T07:02:00.026Z,15.7
2022-09-10T07:06:56.335Z,15.7
2022-09-10T07:12:12.900Z,15.7
2022-09-10T07:17:19.284Z,15.9
2022-09-10T07:22:25.668Z,16.1
2022-09-10T07:27:32.079Z,16.1
2022-09-10T07:32:38.425Z,16.2
2022-09-10T07:37:44.800Z,16.2
2022-09-10T07:42:51.197Z,16.3
2022-09-10T07:47:47.547Z,16.4
2022-09-10T07:53:07.942Z,16.4
2022-09-10T07:58:10.337Z,16.5
2022-09-10T08:03:16.738Z,16.6
2022-09-10T08:08:37.137Z,16.7
2022-09-10T08:13:32.532Z,16.8
2022-09-10T08:18:35.993Z,16.9
2022-09-10T08:23:32.321Z,17.0
2022-09-10T08:28:48.767Z,17.0
2022-09-10T08:39:55.637Z,17.2
2022-09-10T08:45:02.992Z,17.2
2022-09-10T08:49:39.304Z,17.2
2022-09-10T08:54:55.694Z,17.3
2022-09-10T09:00:22.140Z,17.3
2022-09-10T09:05:22.572Z,17.3
2022-09-10T09:10:15.013Z,17.4
2022-09-10T09:15:11.492Z,17.4
2022-09-10T09:20:28.002Z,17.5
2022-09-10T09:25:24.464Z,17.5
2022-09-10T09:30:40.969Z,17.6
2022-09-10T09:35:47.372Z,17.7
2022-09-10T09:40:43.744Z,18.0
2022-09-10T09:46:00.264Z,18.5
2022-09-10T09:51:06.551Z,19.0
2022-09-10T09:56:12.992Z,19.5
2022-09-10T10:01:09.431Z,19.9
2022-09-10T10:07:09.893Z,20.3
2022-09-10T10:11:32.147Z,20.8
2022-09-10T10:16:40.089Z,21.6
2022-09-10T10:21:46.459Z,22.2
2022-09-10T10:26:52.870Z,22.7
2022-09-10T10:32:03.731Z,23.0
2022-09-10T10:37:29.738Z,23.2
2022-09-10T10:42:12.169Z,23.3
2022-09-10T10:47:38.596Z,23.2
2022-09-10T10:52:28.462Z,23.2
2022-09-10T10:57:35.964Z,23.2
2022-09-10T11:02:42.373Z,23.3
2022-09-10T11:13:30.406Z,24.1
2022-09-10T11:18:36.809Z,24.9
2022-09-10T11:23:33.116Z,25.8
2022-09-10T11:28:53.544Z,26.6
2022-09-10T11:33:55.904Z,27.3
2022-09-10T11:39:02.298Z,27.7
2022-09-10T11:44:43.533Z,27.7
2022-09-10T11:50:31.116Z,27.6
2022-09-10T12:00:45.343Z,27.6
2022-09-10T12:05:51.700Z,27.7
2022-09-10T12:11:02.110Z,28.0
2022-09-10T12:15:55.581Z,28.4
2022-09-10T12:26:08.832Z,29.2
2022-09-10T12:32:39.203Z,29.6
2022-09-10T12:37:42.793Z,29.6
2022-09-10T12:47:55.627Z,29.6
2022-09-10T12:53:01.974Z,29.6
2022-09-10T12:58:09.924Z,29.6
2022-09-10T13:03:16.361Z,29.4
2022-09-10T13:08:26.765Z,29.2
2022-09-10T13:13:29.123Z,29.0
2022-09-10T13:18:35.537Z,28.8
2022-09-10T13:23:41.905Z,28.7
2022-09-10T13:33:54.692Z,28.6
2022-09-10T13:49:13.880Z,28.3
2022-09-10T13:54:24.238Z,28.3
2022-09-10T13:59:25.613Z,28.3
2022-09-10T14:04:37.021Z,28.2
2022-09-10T14:09:39.399Z,28.1
2022-09-10T14:15:05.930Z,27.9
2022-09-10T14:19:52.413Z,27.7
2022-09-10T14:40:17.988Z,26.6
2022-09-10T14:45:24.249Z,26.3
2022-09-10T14:50:30.661Z,26.1
2022-09-10T14:55:37.021Z,25.8
2022-09-10T15:00:33.626Z,25.5
2022-09-10T15:05:49.058Z,25.3
2022-09-10T15:10:46.398Z,25.0
2022-09-10T15:16:02.836Z,24.8
2022-09-10T15:21:09.219Z,24.6
2022-09-10T15:26:15.576Z,24.5
2022-09-10T15:31:22.012Z,24.3
2022-09-10T15:37:12.579Z,24.2
2022-09-10T15:41:54.875Z,24.1
2022-09-10T15:47:01.249Z,24.0
2022-09-10T15:51:37.574Z,23.8
2022-09-10T15:56:54.039Z,23.7
2022-09-10T16:07:10.868Z,23.6
2022-09-10T16:12:13.277Z,23.5
2022-09-10T16:17:19.648Z,23.4
2022-09-10T16:22:26.016Z,23.3
2022-09-10T16:27:32.433Z,23.2
2022-09-10T16:32:38.804Z,23.1
2022-09-10T16:37:45.184Z,23.1
2022-09-10T16:42:41.582Z,22.9
2022-09-10T16:47:46.959Z,22.8
2022-09-10T16:53:05.607Z,22.7
2022-09-10T16:58:10.758Z,22.6
2022-09-10T17:03:17.120Z,22.5
2022-09-10T17:08:23.505Z,22.4
2022-09-10T17:13:50.058Z,22.3
2022-09-10T17:18:26.446Z,22.2
2022-09-10T17:23:42.852Z,22.1
2022-09-10T17:28:49.261Z,22.0
2022-09-10T17:34:15.709Z,21.9
2022-09-10T17:38:52.000Z,21.8
2022-09-10T17:45:10.517Z,21.7
2022-09-10T17:50:14.908Z,21.5
2022-09-10T17:54:41.185Z,21.4
2022-09-10T17:59:27.524Z,21.3
2022-09-10T18:10:04.360Z,21.0
2022-09-10T18:14:36.654Z,20.9
2022-09-10T18:20:13.106Z,20.8
2022-09-10T18:24:59.467Z,20.7
2022-09-10T18:30:05.896Z,20.5
2022-09-10T18:35:12.248Z,20.5
2022-09-10T18:40:18.628Z,20.3
2022-09-10T18:45:49.100Z,20.2
2022-09-10T18:50:21.486Z,20.1
2022-09-10T18:55:37.999Z,20.0
2022-09-10T19:00:34.361Z,19.9
2022-09-10T19:06:14.833Z,19.8
2022-09-10T19:10:57.148Z,19.7
2022-09-10T19:16:27.589Z,19.6
2022-09-10T19:20:59.905Z,19.5
2022-09-10T19:26:16.322Z,19.4
2022-09-10T19:31:56.770Z,19.3
2022-09-10T19:42:10.654Z,19.2
2022-09-10T19:47:17.038Z,19.2
2022-09-10T19:52:23.436Z,19.1
2022-09-10T19:57:29.862Z,19.1
2022-09-10T20:02:26.214Z,19.0
2022-09-10T20:12:49.000Z,18.9
2022-09-10T20:17:55.353Z,18.9
2022-09-10T20:22:51.709Z,18.8
2022-09-10T20:28:08.133Z,18.8
2022-09-10T20:33:04.488Z,18.8
2022-09-10T20:38:21.026Z,18.7
2022-09-10T20:43:27.429Z,18.6
2022-09-10T20:48:33.775Z,18.6
2022-09-10T20:53:40.183Z,18.6
2022-09-10T20:58:46.591Z,18.6
2022-09-10T21:04:16.989Z,18.5
2022-09-10T21:09:19.376Z,18.5
2022-09-10T21:13:55.712Z,18.5
2022-09-10T21:19:12.102Z,18.4
2022-09-10T21:24:18.562Z,18.4
2022-09-10T21:37:51.548Z,18.5
2022-09-10T21:42:57.940Z,18.5
2022-09-10T21:47:45.336Z,18.6
2022-09-10T21:52:51.720Z,18.5
2022-09-10T21:57:58.125Z,18.3
2022-09-10T22:04:28.614Z,18.2
2022-09-10T22:08:10.913Z,18.0
2022-09-10T22:13:41.361Z,17.9
2022-09-10T22:18:47.731Z,17.8
2022-09-10T22:23:30.060Z,17.7
2022-09-10T22:28:36.531Z,17.7
2022-09-10T22:34:02.979Z,17.6
2022-09-10T22:39:09.348Z,17.5
2022-09-10T22:43:55.701Z,17.4
2022-09-10T22:49:02.107Z,17.3
2022-09-10T22:54:08.521Z,17.3
2022-09-10T22:59:14.875Z,17.2
2022-09-10T23:04:41.289Z,17.1
2022-09-10T23:09:27.660Z,17.0
2022-09-10T23:16:06.199Z,17.0
2022-09-10T23:19:40.388Z,16.9
2022-09-10T23:24:46.801Z,16.8
2022-09-10T23:29:53.168Z,16.7
2022-09-10T23:34:59.550Z,16.7
2022-09-10T23:40:34.099Z,16.6
2022-09-10T23:45:12.403Z,16.5
2022-09-10T23:50:58.965Z,16.3
2022-09-10T23:56:06.457Z,16.4
